Capitol Logistics 959

Operating for DHL



LGAV
Eleftherios Venizelos International Airport
Athens, GR
EDDK
Cologne Bonn Airport
Cologne, DE

Route Details

Aircraft Information
Group: European Fleet
Types: A30F,A31F,B738
Route Data
Demand: V
Distance: 1056nm
Duration: 2h 54m
Recm'd Route: KOR2T KOR UL53 GARTA UV60 YNN UL604 DIMIS RETRA KUSIB ROLBA SIMBA AKINI T161 ERNAS Y101 OSBIT L984 ASKIK T840 GULKO GULK2V
Origin Wx: LGAV 270550Z 03007KT CAVOK 25/15 Q1017 NOSIG
Dest. Wx: EDDK 270550Z AUTO 27014KT 6000 -DZ OVC011 13/12 Q1020 TEMPO 3500 RADZ BKN009
Notes:

Financial History
Total Freight: 173,551lbs
Average Load: 57,850lbs/flt
Fuel Used: 93,227lbs
Avg. Fuel Used: 31,076lbs/flt
Fuel Expense: $27,369
Avg. Fuel Expense: $9,123
Avg. Fuel Cost: $0.29/lbs
Total Gross Income: $702,528
Pilot Pay: $687
Total Expenses: $90,848
Total Revenue: $582,276
Average Revenue: $234,175.99